weather

Current weather and weather forecast of LSZH


METAR

LSZH 191020Z 01005KT 9999 -SN FEW030 SCT050 BKN070 02/M02 Q1034 NOSIG
AirportLSZH
AirportnameZurich
TimeSunday, January 19th, 10:20 UTC
WindN(010°) at 5kt
Visibilitygreater than 10km/6sm
Precipitationlight snow
Cloudspartly cloudy at 3000ft,
scattered clouds at 5000ft,
mostly cloudy at 7000ft
Temperature2°C/36°F
Dewpointminus 2°C/36°F
RelativeHumidity75%
Altimeter1034mb/30.53inhg
Trendno significant changes expected
© decoder by M.Welten

TAF

TAF LSZH 190825Z 1909/2015 VRB03KT 9999 SCT050 TX03/1914Z TNM02/2006Z TX03/2014Z PROB30 TEMPO 1912/1917 4000 -SHSN BECMG 1910/1913 03008KT BECMG 2006/2009 05012KT TEMPO 2010/2015 06015G25KT
ForecasttypeTAF
AirportLSZH
AirportnameZurich
TimeSunday, January 19th, 08:25 UTC
Forecast
Validity19th 09:00 UTC - 20th 15:00 UTC
Windvaries at 3kt
Visibilitygreater than 10km/6sm
Cloudsscattered clouds at 5000ft
Temperaturesmax-temperature of 3°C/37°F at 14:00 UTC on the 19th.
min-temperature of -2°C/28°F at 06:00 UTC on the 20th.
max-temperature of 3°C/37°F at 14:00 UTC on the 20th.
 
Type30% probability temporary
Validity19th 12:00 UTC - 19th 17:00 UTC
Visibility4000m/2sm
Precipitationlight snow showers
 
Typebecoming
Validity19th 10:00 UTC - 19th 13:00 UTC
WindNNE(030°) at 8kt
 
Typebecoming
Validity20th 06:00 UTC - 20th 09:00 UTC
WindNE(050°) at 12kt
 
Typetemporary
Validity20th 10:00 UTC - 20th 15:00 UTC
WindENE(060°) at 15kt, gusting 25kt
© decoder by M.Welten